createdAt,value
2023-01-03T00:00:14.118Z,5.83
2023-01-03T00:05:16.404Z,5.92
2023-01-03T00:10:18.645Z,6.94
2023-01-03T00:15:20.839Z,7.49
2023-01-03T00:20:23.502Z,7.34
2023-01-03T00:25:26.648Z,7.63
2023-01-03T00:30:28.942Z,6.93
2023-01-03T00:35:31.086Z,6.94
2023-01-03T00:40:33.415Z,7.23
2023-01-03T00:45:35.870Z,7.68
2023-01-03T00:50:38.633Z,7.82
2023-01-03T00:55:41.173Z,7.72
2023-01-03T01:00:43.369Z,7.58
2023-01-03T01:05:45.474Z,7.86
2023-01-03T01:11:02.224Z,7.40
2023-01-03T01:16:07.455Z,7.93
2023-01-03T01:21:13.430Z,7.97
2023-01-03T01:26:17.729Z,7.98
2023-01-03T01:31:23.540Z,7.80
2023-01-03T01:36:28.900Z,7.63
2023-01-03T01:41:51.779Z,7.93
2023-01-03T01:46:55.022Z,7.79
2023-01-03T01:51:58.001Z,7.73
2023-01-03T01:57:03.085Z,7.58
2023-01-03T02:02:06.763Z,7.62
2023-01-03T02:07:13.492Z,7.50
2023-01-03T02:12:52.159Z,7.67
2023-01-03T02:18:22.840Z,7.58
2023-01-03T02:23:46.287Z,7.80
2023-01-03T02:28:58.224Z,7.84
2023-01-03T02:34:04.746Z,7.55
2023-01-03T02:39:45.404Z,7.64
2023-01-03T02:45:05.426Z,7.69
2023-01-03T02:50:11.658Z,7.67
2023-01-03T02:55:22.322Z,7.32
2023-01-03T03:00:28.853Z,7.62
2023-01-03T03:05:43.066Z,7.33
2023-01-03T03:11:05.572Z,7.47
2023-01-03T03:16:40.780Z,7.28
2023-01-03T03:22:01.827Z,7.39
2023-01-03T03:27:27.631Z,7.15
2023-01-03T03:32:32.512Z,6.73
2023-01-03T03:37:38.281Z,7.20
2023-01-03T03:43:11.242Z,7.35
2023-01-03T03:48:29.543Z,7.42
2023-01-03T03:53:36.473Z,7.40
2023-01-03T03:58:50.076Z,7.06
2023-01-03T04:03:54.201Z,7.08
2023-01-03T04:08:56.492Z,6.83
2023-01-03T04:13:58.689Z,7.01
2023-01-03T04:19:00.855Z,6.82
2023-01-03T04:24:05.015Z,7.25
2023-01-03T04:29:08.757Z,7.17
2023-01-03T04:34:10.926Z,7.14
2023-01-03T04:39:13.488Z,6.27
2023-01-03T04:44:15.639Z,5.81
2023-01-03T04:49:17.923Z,6.14
2023-01-03T04:54:20.166Z,6.94
2023-01-03T04:59:22.384Z,6.72
2023-01-03T05:04:26.078Z,6.68
2023-01-03T05:09:30.554Z,6.85
2023-01-03T05:14:32.720Z,6.92
2023-01-03T05:19:40.880Z,6.82
2023-01-03T05:25:06.103Z,5.42
2023-01-03T05:30:08.331Z,5.28
2023-01-03T05:35:10.659Z,5.99
2023-01-03T05:40:13.867Z,6.19
2023-01-03T05:45:16.752Z,6.34
2023-01-03T05:50:20.115Z,6.83
2023-01-03T05:55:32.846Z,5.28
2023-01-03T06:00:35.286Z,6.49
2023-01-03T06:05:37.412Z,6.45
2023-01-03T06:10:41.271Z,6.68
2023-01-03T06:15:43.643Z,6.79
2023-01-03T06:20:45.849Z,6.40
2023-01-03T06:25:48.014Z,6.37
2023-01-03T06:30:50.232Z,6.50
2023-01-03T06:35:53.040Z,6.35
2023-01-03T06:40:55.285Z,6.59
2023-01-03T06:46:17.700Z,6.85
2023-01-03T06:51:40.383Z,6.77
2023-01-03T06:56:42.908Z,6.52
2023-01-03T07:01:46.547Z,7.11
2023-01-03T07:06:48.879Z,7.12
2023-01-03T07:11:51.643Z,5.58
2023-01-03T07:16:53.772Z,6.35
2023-01-03T07:21:55.948Z,6.52
2023-01-03T07:27:02.349Z,7.06
2023-01-03T07:32:05.359Z,7.41
2023-01-03T07:37:16.544Z,7.51
2023-01-03T07:42:37.320Z,7.39
2023-01-03T07:47:43.993Z,7.22
2023-01-03T07:52:46.120Z,7.51
2023-01-03T07:57:48.300Z,7.10
2023-01-03T08:02:54.657Z,7.40
2023-01-03T08:07:56.868Z,6.89
2023-01-03T08:13:17.688Z,7.01
2023-01-03T08:18:21.086Z,6.73
2023-01-03T08:23:27.420Z,7.34
2023-01-03T08:28:29.886Z,7.78
2023-01-03T08:33:40.511Z,7.80
2023-01-03T08:39:00.754Z,6.89
2023-01-03T08:44:04.418Z,7.47
2023-01-03T08:49:06.624Z,8.00
2023-01-03T08:54:08.859Z,8.33
2023-01-03T08:59:11.017Z,8.04
2023-01-03T09:04:13.242Z,8.07
2023-01-03T09:09:15.516Z,7.93
2023-01-03T09:14:17.777Z,7.71
2023-01-03T09:19:19.994Z,7.97
2023-01-03T09:24:22.198Z,8.08
2023-01-03T09:29:24.530Z,7.93
2023-01-03T09:34:26.715Z,8.43
2023-01-03T09:39:28.882Z,8.43
2023-01-03T09:44:31.039Z,8.54
2023-01-03T09:49:51.897Z,8.64
2023-01-03T09:55:19.590Z,8.67
2023-01-03T10:01:17.345Z,9.10
2023-01-03T10:07:16.657Z,8.95
2023-01-03T10:12:46.064Z,8.84
2023-01-03T10:18:18.403Z,8.30
2023-01-03T10:23:20.699Z,8.87
2023-01-03T10:28:26.528Z,8.98
2023-01-03T10:33:38.757Z,9.22
2023-01-03T10:38:52.422Z,9.53
2023-01-03T10:44:00.969Z,9.04
2023-01-03T10:49:33.310Z,9.51
2023-01-03T10:54:41.327Z,9.02
2023-01-03T10:59:50.016Z,9.97
2023-01-03T11:05:13.700Z,10.15
2023-01-03T11:10:19.695Z,10.55
2023-01-03T11:15:39.136Z,10.46
2023-01-03T11:21:04.850Z,10.25
2023-01-03T11:26:33.509Z,11.05
2023-01-03T11:32:39.999Z,10.63
2023-01-03T11:37:55.303Z,10.28
2023-01-03T11:43:32.651Z,11.02
2023-01-03T11:48:50.643Z,11.22
2023-01-03T11:55:02.890Z,11.13
2023-01-03T12:00:40.504Z,10.77
2023-01-03T12:05:46.836Z,10.39
2023-01-03T12:11:49.241Z,11.77
2023-01-03T12:17:11.112Z,11.83
2023-01-03T12:22:38.312Z,12.12
2023-01-03T12:27:48.213Z,11.94
2023-01-03T12:33:00.733Z,11.26
2023-01-03T12:38:05.671Z,11.60
2023-01-03T12:43:25.655Z,12.03
2023-01-03T12:48:52.119Z,11.83
2023-01-03T12:54:19.349Z,12.71
2023-01-03T12:59:53.254Z,11.67
2023-01-03T13:05:15.304Z,11.82
2023-01-03T13:10:24.309Z,12.46
2023-01-03T13:15:36.557Z,12.14
2023-01-03T13:20:47.869Z,12.26
2023-01-03T13:26:05.585Z,12.49
2023-01-03T13:31:22.821Z,12.84
2023-01-03T13:36:25.778Z,12.65
2023-01-03T13:41:38.266Z,12.66
2023-01-03T13:46:43.172Z,12.56
2023-01-03T13:51:55.865Z,12.29
2023-01-03T13:57:03.470Z,12.37
2023-01-03T14:02:33.014Z,12.43
2023-01-03T14:08:15.606Z,12.40
2023-01-03T14:13:42.038Z,12.70
2023-01-03T14:19:04.728Z,12.97
2023-01-03T14:24:13.965Z,13.13
2023-01-03T14:29:26.984Z,13.47
2023-01-03T14:34:37.436Z,13.90
2023-01-03T14:39:42.713Z,14.37
2023-01-03T14:44:51.411Z,14.37
2023-01-03T14:49:55.479Z,14.78
2023-01-03T14:55:04.480Z,14.89
2023-01-03T15:00:09.115Z,14.85
2023-01-03T15:05:33.418Z,13.85
2023-01-03T15:10:50.475Z,13.39
2023-01-03T15:16:01.753Z,12.92
2023-01-03T15:21:05.986Z,12.09
2023-01-03T15:26:38.593Z,11.96
2023-01-03T15:32:05.274Z,11.49
2023-01-03T15:37:19.726Z,11.26
2023-01-03T15:42:45.351Z,11.59
2023-01-03T15:47:52.717Z,11.17
2023-01-03T15:52:55.216Z,11.40
2023-01-03T15:58:03.464Z,11.37
2023-01-03T16:03:06.042Z,11.05
2023-01-03T16:08:30.519Z,10.97
2023-01-03T16:13:39.092Z,11.00
2023-01-03T16:18:46.694Z,10.91
2023-01-03T16:23:48.998Z,10.81
2023-01-03T16:29:07.103Z,9.55
2023-01-03T16:34:18.476Z,9.60
2023-01-03T16:39:27.075Z,10.02
2023-01-03T16:44:29.275Z,10.49
2023-01-03T16:49:38.665Z,10.89
2023-01-03T16:54:42.066Z,10.54
2023-01-03T16:59:44.968Z,10.44
2023-01-03T17:04:47.247Z,10.31
2023-01-03T17:09:51.611Z,10.40
2023-01-03T17:14:53.840Z,9.93
2023-01-03T17:20:05.193Z,9.50
2023-01-03T17:25:12.038Z,9.37
2023-01-03T17:30:20.451Z,9.54
2023-01-03T17:35:23.341Z,9.77
2023-01-03T17:40:34.048Z,9.67
2023-01-03T17:45:55.375Z,9.81
2023-01-03T17:51:00.515Z,10.09
2023-01-03T17:56:05.798Z,9.97
2023-01-03T18:01:11.114Z,10.36
2023-01-03T18:06:20.759Z,10.01
2023-01-03T18:11:26.605Z,9.82
2023-01-03T18:16:29.054Z,9.67
2023-01-03T18:21:33.498Z,9.75
2023-01-03T18:26:43.802Z,10.03
2023-01-03T18:31:46.753Z,9.85
2023-01-03T18:36:52.109Z,9.75
2023-01-03T18:42:15.044Z,9.67
2023-01-03T18:47:17.807Z,9.94
2023-01-03T18:52:24.821Z,9.71
2023-01-03T18:57:27.376Z,9.79
2023-01-03T19:02:30.815Z,8.80
2023-01-03T19:07:35.317Z,8.93
2023-01-03T19:12:41.563Z,9.60
2023-01-03T19:17:48.011Z,9.37
2023-01-03T19:22:52.323Z,9.23
2023-01-03T19:27:57.908Z,9.58
2023-01-03T19:33:00.759Z,9.16
2023-01-03T19:38:03.328Z,9.31
2023-01-03T19:43:06.834Z,9.97
2023-01-03T19:48:37.425Z,9.82
2023-01-03T19:53:40.135Z,9.54
2023-01-03T19:58:43.116Z,9.84
2023-01-03T20:03:45.751Z,9.71
2023-01-03T20:08:48.282Z,9.62
2023-01-03T20:13:50.915Z,9.80
2023-01-03T20:18:53.396Z,9.65
2023-01-03T20:23:58.506Z,9.80
2023-01-03T20:29:01.072Z,9.70
2023-01-03T20:34:06.853Z,9.40
2023-01-03T20:39:36.262Z,9.51
2023-01-03T20:44:38.517Z,9.18
2023-01-03T20:49:43.079Z,9.24
2023-01-03T20:54:48.243Z,9.05
2023-01-03T20:59:50.809Z,9.32
2023-01-03T21:04:53.076Z,8.95
2023-01-03T21:09:58.178Z,9.31
2023-01-03T21:15:00.352Z,9.37
2023-01-03T21:20:02.628Z,9.36
2023-01-03T21:25:06.285Z,9.16
2023-01-03T21:30:09.452Z,9.23
2023-01-03T21:35:22.685Z,9.47
2023-01-03T21:40:27.520Z,9.54
2023-01-03T21:45:29.786Z,9.14
2023-01-03T21:50:33.672Z,8.97
2023-01-03T21:55:36.037Z,8.47
2023-01-03T22:00:38.231Z,8.73
2023-01-03T22:05:40.590Z,8.53
2023-01-03T22:10:53.272Z,8.83
2023-01-03T22:15:56.103Z,8.44
2023-01-03T22:21:07.349Z,8.85
2023-01-03T22:26:12.277Z,8.85
2023-01-03T22:31:17.463Z,8.96
2023-01-03T22:36:21.011Z,8.79
2023-01-03T22:41:23.196Z,8.57
2023-01-03T22:46:25.515Z,8.57
2023-01-03T22:51:27.764Z,8.79
2023-01-03T22:56:36.596Z,8.97
2023-01-03T23:01:39.075Z,8.88
2023-01-03T23:06:41.402Z,8.70
2023-01-03T23:12:02.135Z,8.55
2023-01-03T23:17:23.972Z,8.49
2023-01-03T23:22:27.122Z,8.41
2023-01-03T23:27:29.318Z,8.44
2023-01-03T23:32:33.535Z,8.45
2023-01-03T23:37:35.718Z,8.22
2023-01-03T23:42:37.977Z,8.09
2023-01-03T23:47:40.168Z,8.39
2023-01-03T23:52:42.354Z,8.34
2023-01-03T23:57:45.659Z,8.14
